createdAt,value
2023-05-14T00:00:55.216Z,95950.13
2023-05-14T00:03:22.115Z,95934.94
2023-05-14T00:05:51.456Z,95947.91
2023-05-14T00:08:18.261Z,95941.22
2023-05-14T00:10:49.805Z,95940.50
2023-05-14T00:13:19.093Z,95940.34
2023-05-14T00:15:48.325Z,95939.75
2023-05-14T00:18:19.838Z,95931.84
2023-05-14T00:20:55.008Z,95931.16
2023-05-14T00:23:24.695Z,95927.59
2023-05-14T00:25:57.064Z,95928.97
2023-05-14T00:28:23.801Z,95932.47
2023-05-14T00:30:51.356Z,95930.28
2023-05-14T00:33:20.861Z,95932.56
2023-05-14T00:35:52.689Z,95932.41
2023-05-14T00:38:21.932Z,95933.16
2023-05-14T00:40:52.115Z,95937.41
2023-05-14T00:43:20.386Z,95925.06
2023-05-14T00:45:52.515Z,95931.69
2023-05-14T00:48:27.673Z,95934.53
2023-05-14T00:51:02.786Z,95928.75
2023-05-14T00:53:34.578Z,95928.66
2023-05-14T00:56:06.137Z,95935.94
2023-05-14T00:58:41.004Z,95924.41
2023-05-14T01:01:07.886Z,95935.94
2023-05-14T01:03:44.840Z,95929.47
2023-05-14T01:06:48.778Z,95923.19
2023-05-14T01:09:42.959Z,95920.25
2023-05-14T01:12:28.691Z,95920.16
2023-05-14T01:15:01.910Z,95925.81
2023-05-14T01:17:31.985Z,95934.31
2023-05-14T01:20:02.549Z,95929.91
2023-05-14T01:22:32.585Z,95929.78
2023-05-14T01:25:01.751Z,95918.94
2023-05-14T01:28:02.113Z,95929.78
2023-05-14T01:30:35.990Z,95917.56
2023-05-14T01:33:16.809Z,95913.88
2023-05-14T01:35:44.543Z,95912.22
2023-05-14T01:38:18.166Z,95904.94
2023-05-14T01:40:51.308Z,95912.06
2023-05-14T01:43:21.807Z,95919.16
2023-05-14T01:45:51.038Z,95915.56
2023-05-14T01:48:25.236Z,95912.63
2023-05-14T01:50:57.521Z,95903.91
2023-05-14T01:53:27.580Z,95897.34
2023-05-14T01:55:54.439Z,95906.00
2023-05-14T01:58:25.900Z,95898.66
2023-05-14T02:00:53.109Z,95898.03
2023-05-14T02:03:24.805Z,95894.34
2023-05-14T02:05:53.914Z,95901.59
2023-05-14T02:08:21.000Z,95894.97
2023-05-14T02:10:51.256Z,95892.94
2023-05-14T02:13:23.014Z,95893.69
2023-05-14T02:15:49.933Z,95888.63
2023-05-14T02:18:16.760Z,95898.50
2023-05-14T02:20:43.783Z,95896.13
2023-05-14T02:23:15.148Z,72854.09
2023-05-14T02:25:47.213Z,95896.13
2023-05-14T02:28:14.006Z,95893.19
2023-05-14T02:30:43.172Z,72854.09
2023-05-14T02:33:10.146Z,72854.09
2023-05-14T02:35:39.310Z,72854.09
2023-05-14T02:38:11.510Z,72854.09
2023-05-14T02:40:43.661Z,72854.09
2023-05-14T02:43:13.713Z,72854.09
2023-05-14T02:45:45.295Z,72854.09
2023-05-14T02:48:12.126Z,72854.09
2023-05-14T02:50:38.966Z,72854.09
2023-05-14T02:53:05.882Z,72854.09
2023-05-14T02:55:32.643Z,72854.09
2023-05-14T02:57:59.544Z,72854.09
2023-05-14T03:00:28.672Z,72854.09
2023-05-14T03:02:58.230Z,72854.09
2023-05-14T03:05:28.188Z,72854.09
2023-05-14T03:07:57.487Z,72854.09
2023-05-14T03:10:29.029Z,72854.09
2023-05-14T03:12:58.181Z,72854.09
2023-05-14T03:15:24.966Z,72854.09
2023-05-14T03:17:56.244Z,72854.09
2023-05-14T03:20:28.303Z,72854.09
2023-05-14T03:22:56.268Z,72854.09
2023-05-14T03:25:27.940Z,72854.09
2023-05-14T03:27:57.141Z,72854.09
2023-05-14T03:30:26.713Z,72854.09
2023-05-14T03:32:53.764Z,72854.09
2023-05-14T03:35:25.622Z,72854.09
2023-05-14T03:37:54.716Z,72854.09
2023-05-14T03:40:28.802Z,72854.09
2023-05-14T03:42:58.021Z,72854.09
2023-05-14T03:45:30.551Z,72854.09
2023-05-14T03:48:01.564Z,72854.09
2023-05-14T03:50:29.576Z,72854.09
2023-05-14T03:53:01.013Z,72854.09
2023-05-14T03:55:30.228Z,72854.09
2023-05-14T03:57:59.241Z,72854.09
2023-05-14T04:00:28.987Z,72854.09
2023-05-14T04:02:55.833Z,72854.09
2023-05-14T04:05:27.269Z,72854.09
2023-05-14T04:07:59.425Z,72854.09
2023-05-14T04:10:32.342Z,72854.09
2023-05-14T04:13:05.249Z,72854.09
2023-05-14T04:15:40.127Z,72854.09
2023-05-14T04:18:14.106Z,72854.09
2023-05-14T04:20:43.360Z,72854.09
2023-05-14T04:23:15.054Z,72854.09
2023-05-14T04:25:47.329Z,72854.09
2023-05-14T04:28:18.646Z,72854.09
2023-05-14T04:30:46.010Z,72854.09
2023-05-14T04:33:12.818Z,72854.09
2023-05-14T04:35:44.156Z,72854.09
2023-05-14T04:38:15.756Z,72854.09
2023-05-14T04:40:47.381Z,72854.09
2023-05-14T04:43:17.707Z,72854.09
2023-05-14T04:45:44.506Z,72854.09
2023-05-14T04:48:13.536Z,72854.09
2023-05-14T04:50:40.394Z,72854.09
2023-05-14T04:53:09.434Z,72854.09
2023-05-14T04:55:36.207Z,72854.09
2023-05-14T04:58:05.845Z,72854.09
2023-05-14T05:00:33.718Z,72854.09
2023-05-14T05:03:05.089Z,72854.09
2023-05-14T05:05:35.321Z,72854.09
2023-05-14T05:08:09.368Z,72854.09
2023-05-14T05:10:36.482Z,72854.09
2023-05-14T05:13:03.244Z,72854.09
2023-05-14T05:15:32.518Z,72854.09
2023-05-14T05:18:01.856Z,72854.09
2023-05-14T05:20:31.246Z,72854.09
2023-05-14T05:23:00.299Z,72854.09
2023-05-14T05:25:27.966Z,72854.09
2023-05-14T05:27:57.106Z,72854.09
2023-05-14T05:30:28.539Z,72854.09
2023-05-14T05:33:00.229Z,72854.09
2023-05-14T05:35:27.066Z,72854.09
2023-05-14T05:37:53.951Z,72854.09
2023-05-14T05:40:23.358Z,72854.09
2023-05-14T05:42:52.366Z,72854.09
2023-05-14T05:45:24.001Z,72854.09
2023-05-14T05:47:56.173Z,72854.09
2023-05-14T05:50:33.049Z,72854.09
2023-05-14T05:52:59.826Z,72854.09
2023-05-14T05:55:31.806Z,72854.09
2023-05-14T05:58:01.092Z,72854.09
2023-05-14T06:00:32.689Z,72854.09
2023-05-14T06:03:02.149Z,72854.09
2023-05-14T06:05:31.135Z,72854.09
2023-05-14T06:07:58.036Z,72854.09
2023-05-14T06:10:25.056Z,72854.09
2023-05-14T06:12:54.299Z,72854.09
2023-05-14T06:15:28.623Z,72854.09
2023-05-14T06:18:00.413Z,72854.09
2023-05-14T06:20:29.537Z,72854.09
2023-05-14T06:23:03.785Z,72854.09
2023-05-14T06:25:30.623Z,72854.09
2023-05-14T06:28:04.847Z,72854.09
2023-05-14T06:30:34.080Z,72854.09
2023-05-14T06:33:03.157Z,72854.09
2023-05-14T06:35:32.980Z,72854.09
2023-05-14T06:37:59.799Z,72854.09
2023-05-14T06:40:29.094Z,72854.09
2023-05-14T06:43:00.659Z,72854.09
2023-05-14T06:45:31.198Z,72854.09
2023-05-14T06:48:04.692Z,72854.09
2023-05-14T06:50:33.550Z,72854.09
2023-05-14T06:53:00.329Z,72854.09
2023-05-14T06:55:27.097Z,72854.09
2023-05-14T06:57:56.242Z,72854.09
2023-05-14T07:00:26.104Z,72854.09
2023-05-14T07:02:57.570Z,72854.09
2023-05-14T07:05:31.826Z,72854.09
2023-05-14T07:08:03.965Z,72854.09
2023-05-14T07:10:35.610Z,72854.09
2023-05-14T07:13:04.784Z,72854.09
2023-05-14T07:15:36.254Z,72854.09
2023-05-14T07:18:07.895Z,72854.09
2023-05-14T07:20:34.757Z,72854.09
2023-05-14T07:23:05.873Z,72854.09
2023-05-14T07:25:37.427Z,72854.09
2023-05-14T07:28:04.268Z,72854.09
2023-05-14T07:30:34.058Z,72854.09
2023-05-14T07:33:03.463Z,72854.09
2023-05-14T07:35:32.541Z,72854.09
2023-05-14T07:38:03.238Z,72854.09
2023-05-14T07:40:32.308Z,72854.09
2023-05-14T07:43:04.019Z,72854.09
2023-05-14T07:45:44.108Z,72854.09
2023-05-14T07:48:15.622Z,72854.09
2023-05-14T07:50:47.899Z,72854.09
2023-05-14T07:53:22.188Z,72854.09
2023-05-14T07:55:53.574Z,72854.09
2023-05-14T07:58:23.717Z,72854.09
2023-05-14T08:00:56.680Z,72854.09
2023-05-14T08:03:23.596Z,72854.09
2023-05-14T08:05:55.074Z,72854.09
2023-05-14T08:08:27.491Z,72854.09
2023-05-14T08:10:56.572Z,72854.09
2023-05-14T08:13:27.976Z,72854.09
2023-05-14T08:15:57.327Z,72854.09
2023-05-14T08:18:24.175Z,72854.09
2023-05-14T08:20:56.196Z,72854.09
2023-05-14T08:23:28.403Z,72854.09
2023-05-14T08:25:57.396Z,72854.09
2023-05-14T08:28:26.503Z,72854.09
2023-05-14T08:30:53.292Z,72854.09
2023-05-14T08:33:20.063Z,72854.09
2023-05-14T08:35:46.842Z,72854.09
2023-05-14T08:38:18.105Z,72854.09
2023-05-14T08:41:03.945Z,72854.09
2023-05-14T08:43:42.085Z,72854.09
2023-05-14T08:46:15.183Z,72854.09
2023-05-14T08:48:50.779Z,72854.09
2023-05-14T08:51:22.728Z,72854.09
2023-05-14T08:53:49.529Z,72854.09
2023-05-14T08:56:21.818Z,72854.09
2023-05-14T08:58:50.865Z,72854.09
2023-05-14T09:01:21.365Z,72854.09
2023-05-14T09:03:52.996Z,72854.09
2023-05-14T09:06:21.739Z,72854.09
2023-05-14T09:08:54.205Z,72854.09
2023-05-14T09:11:24.940Z,72854.09
2023-05-14T09:13:54.105Z,72854.09
2023-05-14T09:16:28.471Z,72854.09
2023-05-14T09:18:55.493Z,72854.09
2023-05-14T09:21:27.127Z,72854.09
2023-05-14T09:23:57.531Z,72854.09
2023-05-14T09:26:28.997Z,72854.09
2023-05-14T09:29:02.306Z,72854.09
2023-05-14T09:31:33.829Z,72854.09
2023-05-14T09:34:03.125Z,72854.09
2023-05-14T09:36:30.028Z,72854.09
2023-05-14T09:39:04.823Z,72854.09
2023-05-14T09:41:34.000Z,72854.09
2023-05-14T09:44:05.423Z,72854.09
2023-05-14T09:46:38.628Z,72854.09
2023-05-14T09:49:10.344Z,72854.09
2023-05-14T09:51:43.958Z,72854.09
2023-05-14T09:54:15.565Z,72854.09
2023-05-14T09:56:43.598Z,72854.09
2023-05-14T09:59:13.625Z,72854.09
2023-05-14T10:01:42.647Z,72854.09
2023-05-14T10:04:17.732Z,72854.09
2023-05-14T10:06:53.243Z,72854.09
2023-05-14T10:09:28.555Z,72854.09
2023-05-14T10:12:03.157Z,72854.09
2023-05-14T10:14:38.989Z,72854.09
2023-05-14T10:17:18.524Z,72854.09
2023-05-14T10:19:56.860Z,72854.09
2023-05-14T10:22:35.170Z,72854.09
2023-05-14T10:25:07.238Z,72854.09
2023-05-14T10:27:39.823Z,72854.09
2023-05-14T10:30:15.754Z,72854.09
2023-05-14T10:32:44.428Z,72854.09
2023-05-14T10:35:22.905Z,72854.09
2023-05-14T10:37:54.687Z,72854.09
2023-05-14T10:40:24.984Z,72854.09
2023-05-14T10:42:59.236Z,72854.09
2023-05-14T10:45:30.470Z,72854.09
2023-05-14T10:48:00.268Z,72854.09
2023-05-14T10:50:30.090Z,72854.09
2023-05-14T10:53:02.490Z,72854.09
2023-05-14T10:55:29.772Z,72854.09
2023-05-14T10:57:59.223Z,72854.09
2023-05-14T11:00:35.864Z,72854.09
2023-05-14T11:03:08.156Z,72854.09
2023-05-14T11:05:44.249Z,72854.09
2023-05-14T11:08:14.431Z,72854.09
2023-05-14T11:10:47.007Z,72854.09
2023-05-14T11:13:16.511Z,72854.09
2023-05-14T11:15:51.649Z,72854.09
2023-05-14T11:18:33.761Z,72854.09
2023-05-14T11:21:05.326Z,72854.09
2023-05-14T11:23:34.492Z,72854.09
2023-05-14T11:26:01.812Z,72854.09
2023-05-14T11:28:29.901Z,72854.09
2023-05-14T11:30:56.754Z,72854.09
2023-05-14T11:33:30.584Z,72854.09
2023-05-14T11:35:59.858Z,72854.09
2023-05-14T11:38:29.157Z,72854.09
2023-05-14T11:40:57.203Z,72854.09
2023-05-14T11:43:29.544Z,72854.09
2023-05-14T11:46:01.098Z,72854.09
2023-05-14T11:48:33.984Z,72854.09
2023-05-14T11:51:07.106Z,72854.09
2023-05-14T11:53:37.155Z,72854.09
2023-05-14T11:56:09.913Z,72854.09
2023-05-14T11:58:41.910Z,72854.09
2023-05-14T12:01:13.813Z,72854.09
2023-05-14T12:03:43.075Z,72854.09
2023-05-14T12:06:12.287Z,72854.09
2023-05-14T12:08:43.674Z,72854.09
2023-05-14T12:11:16.582Z,72854.09
2023-05-14T12:13:45.837Z,72854.09
2023-05-14T12:16:18.437Z,72854.09
2023-05-14T12:18:52.481Z,72854.09
2023-05-14T12:21:21.612Z,72854.09
2023-05-14T12:23:57.022Z,72854.09
2023-05-14T12:26:27.634Z,72854.09
2023-05-14T12:29:04.292Z,72854.09
2023-05-14T12:31:37.354Z,72854.09
2023-05-14T12:34:04.406Z,72854.09
2023-05-14T12:36:33.037Z,72854.09
2023-05-14T12:39:04.197Z,72854.09
2023-05-14T12:41:39.177Z,72854.09
2023-05-14T12:44:08.549Z,72854.09
2023-05-14T12:46:35.591Z,72854.09
2023-05-14T12:49:02.521Z,72854.09
2023-05-14T12:51:30.069Z,72854.09
2023-05-14T12:53:56.991Z,72854.09
2023-05-14T12:56:28.893Z,72854.09
2023-05-14T12:58:58.507Z,72854.09
2023-05-14T13:01:27.592Z,72854.09
2023-05-14T13:03:58.518Z,72854.09
2023-05-14T13:06:32.165Z,72854.09
2023-05-14T13:09:00.371Z,72854.09
2023-05-14T13:11:32.229Z,72854.09
2023-05-14T13:14:00.139Z,95893.03
2023-05-14T13:16:30.409Z,95647.06
2023-05-14T13:18:59.650Z,95639.34
2023-05-14T13:21:31.512Z,95633.78
2023-05-14T13:24:04.442Z,95634.03
2023-05-14T13:26:31.302Z,95631.31
2023-05-14T13:29:04.921Z,95614.84
2023-05-14T13:31:38.925Z,95623.09
2023-05-14T13:34:05.904Z,95631.19
2023-05-14T13:36:39.753Z,95624.94
2023-05-14T13:39:10.170Z,95616.47
2023-05-14T13:41:39.240Z,95613.81
2023-05-14T13:44:10.767Z,95616.13
2023-05-14T13:46:40.018Z,95609.00
2023-05-14T13:49:06.975Z,95604.84
2023-05-14T13:51:36.444Z,95602.84
2023-05-14T13:54:05.906Z,95589.22
2023-05-14T13:56:35.185Z,95586.56
2023-05-14T13:59:09.689Z,95591.09
2023-05-14T14:01:43.348Z,95582.56
2023-05-14T14:04:12.303Z,95578.31
2023-05-14T14:06:43.945Z,95581.31
2023-05-14T14:09:16.161Z,95572.06
2023-05-14T14:11:43.170Z,95577.81
2023-05-14T14:14:12.365Z,95575.09
2023-05-14T14:16:44.501Z,95573.00
2023-05-14T14:19:16.051Z,95570.97
2023-05-14T14:21:43.248Z,95560.88
2023-05-14T14:24:14.897Z,95560.28
2023-05-14T14:26:41.745Z,95554.56
2023-05-14T14:29:12.954Z,95550.31
2023-05-14T14:31:42.026Z,95546.81
2023-05-14T14:34:08.792Z,95552.53
2023-05-14T14:36:41.109Z,95545.41
2023-05-14T14:39:10.268Z,95539.00
2023-05-14T14:41:39.535Z,95539.69
2023-05-14T14:44:06.714Z,95538.34
2023-05-14T14:46:38.390Z,95535.47
2023-05-14T14:49:07.535Z,95530.50
2023-05-14T14:51:36.640Z,95540.63
2023-05-14T14:54:06.084Z,95533.50
2023-05-14T14:56:40.033Z,95537.22
2023-05-14T14:59:06.822Z,95535.03
2023-05-14T15:01:35.926Z,95529.38
2023-05-14T15:04:05.000Z,95530.78
2023-05-14T15:06:36.823Z,95530.91
2023-05-14T15:09:03.653Z,95536.03
2023-05-14T15:11:30.652Z,95534.66
2023-05-14T15:13:59.807Z,95548.44
2023-05-14T15:16:33.701Z,95535.53
2023-05-14T15:19:06.014Z,95520.41
2023-05-14T15:21:36.075Z,95518.97
2023-05-14T15:24:11.112Z,95521.13
2023-05-14T15:26:40.130Z,95519.69
2023-05-14T15:29:09.473Z,95529.78
2023-05-14T15:31:36.268Z,95525.47
2023-05-14T15:34:10.497Z,95518.94
2023-05-14T15:36:39.877Z,95530.47
2023-05-14T15:39:10.578Z,93656.28
2023-05-14T15:41:39.749Z,72854.09
2023-05-14T15:44:08.893Z,72854.09
2023-05-14T15:46:38.754Z,72854.09
2023-05-14T15:49:11.124Z,72854.09
2023-05-14T15:51:41.122Z,72854.09
2023-05-14T15:54:10.226Z,72854.09
2023-05-14T15:56:39.555Z,72854.09
2023-05-14T15:59:11.162Z,72854.09
2023-05-14T16:01:43.026Z,72854.09
2023-05-14T16:04:14.482Z,95531.88
2023-05-14T16:06:45.442Z,95602.81
2023-05-14T16:09:15.013Z,95603.94
2023-05-14T16:11:45.242Z,95592.03
2023-05-14T16:14:18.662Z,95601.22
2023-05-14T16:16:45.612Z,95590.72
2023-05-14T16:19:15.153Z,95600.78
2023-05-14T16:21:44.698Z,95597.53
2023-05-14T16:24:16.904Z,95608.97
2023-05-14T16:26:46.217Z,95600.81
2023-05-14T16:29:16.060Z,95612.72
2023-05-14T16:31:46.309Z,95601.66
2023-05-14T16:34:13.466Z,95603.66
2023-05-14T16:36:43.271Z,95611.34
2023-05-14T16:39:14.926Z,95608.41
2023-05-14T16:41:41.812Z,95603.97
2023-05-14T16:44:16.124Z,95603.88
2023-05-14T16:46:45.205Z,95610.84
2023-05-14T16:49:17.351Z,95615.13
2023-05-14T16:51:46.754Z,95611.47
2023-05-14T16:54:16.385Z,95611.38
2023-05-14T16:56:48.230Z,95602.66
2023-05-14T16:59:16.304Z,95619.13
2023-05-14T17:01:44.113Z,95602.47
2023-05-14T17:04:11.038Z,95611.03
2023-05-14T17:06:42.453Z,95607.22
2023-05-14T17:09:12.290Z,95602.81
2023-05-14T17:11:44.165Z,95605.63
2023-05-14T17:14:11.082Z,95601.91
2023-05-14T17:16:42.696Z,95604.00
2023-05-14T17:19:09.609Z,95597.34
2023-05-14T17:21:41.475Z,95596.47
2023-05-14T17:24:08.504Z,95590.06
2023-05-14T17:26:38.056Z,95614.41
2023-05-14T17:29:04.794Z,95595.72
2023-05-14T17:31:33.845Z,95602.09
2023-05-14T17:34:03.261Z,95604.31
2023-05-14T17:36:32.540Z,95604.03
2023-05-14T17:38:59.587Z,95600.69
2023-05-14T17:41:31.630Z,95605.69
2023-05-14T17:44:03.581Z,95606.44
2023-05-14T17:46:33.916Z,95602.09
2023-05-14T17:49:05.659Z,95597.66
2023-05-14T17:51:35.709Z,95605.63
2023-05-14T17:54:04.780Z,95592.53
2023-05-14T17:56:39.529Z,95604.84
2023-05-14T17:59:08.648Z,95619.91
2023-05-14T18:01:42.618Z,95614.91
2023-05-14T18:04:15.276Z,95612.69
2023-05-14T18:06:46.807Z,95587.81
2023-05-14T18:09:21.359Z,95606.31
2023-05-14T18:11:56.954Z,95609.88
2023-05-14T18:14:29.813Z,95599.13
2023-05-14T18:16:58.831Z,95595.28
2023-05-14T18:19:32.756Z,95607.72
2023-05-14T18:22:02.711Z,95609.13
2023-05-14T18:24:34.528Z,95609.78
2023-05-14T18:27:08.645Z,95609.78
2023-05-14T18:29:40.837Z,95616.16
2023-05-14T18:32:10.520Z,95611.84
2023-05-14T18:34:39.717Z,95619.66
2023-05-14T18:37:07.458Z,95614.53
2023-05-14T18:39:36.788Z,95620.31
2023-05-14T18:42:06.596Z,95606.41
2023-05-14T18:44:33.782Z,95623.13
2023-05-14T18:47:00.769Z,95617.41
2023-05-14T18:49:29.039Z,95630.28
2023-05-14T18:52:03.301Z,95630.28
2023-05-14T18:54:32.709Z,95634.53
2023-05-14T18:57:04.407Z,95623.66
2023-05-14T18:59:36.555Z,95629.56
2023-05-14T19:02:08.396Z,95638.81
2023-05-14T19:04:51.157Z,95626.59
2023-05-14T19:07:19.444Z,95625.72
2023-05-14T19:09:48.995Z,95622.88
2023-05-14T19:12:16.298Z,95633.63
2023-05-14T19:14:45.617Z,95631.41
2023-05-14T19:17:15.830Z,95635.56
2023-05-14T19:19:44.513Z,95620.34
2023-05-14T19:22:13.605Z,95628.31
2023-05-14T19:24:43.653Z,95639.22
2023-05-14T19:27:10.639Z,95634.44
2023-05-14T19:29:40.046Z,95624.38
2023-05-14T19:32:09.915Z,95621.63
2023-05-14T19:34:44.443Z,95624.38
2023-05-14T19:37:11.618Z,95620.13
2023-05-14T19:39:38.473Z,95636.91
2023-05-14T19:42:05.752Z,95638.91
2023-05-14T19:44:32.664Z,95640.22
2023-05-14T19:47:01.878Z,95610.91
2023-05-14T19:49:28.835Z,95637.19
2023-05-14T19:51:55.707Z,95627.50
2023-05-14T19:54:27.578Z,95646.34
2023-05-14T19:56:54.985Z,95637.63
2023-05-14T19:59:21.948Z,95613.47
2023-05-14T20:01:54.759Z,95618.50
2023-05-14T20:04:26.243Z,95608.19
2023-05-14T20:06:53.658Z,95639.50
2023-05-14T20:09:23.092Z,95613.41
2023-05-14T20:11:52.189Z,95624.22
2023-05-14T20:14:21.548Z,95632.28
2023-05-14T20:16:49.192Z,95619.19
2023-05-14T20:19:16.584Z,95631.38
2023-05-14T20:21:43.563Z,95637.97
2023-05-14T20:24:12.691Z,95635.88
2023-05-14T20:26:44.925Z,95616.31
2023-05-14T20:29:17.004Z,95612.47
2023-05-14T20:31:48.709Z,95639.56
2023-05-14T20:34:15.859Z,95639.50
2023-05-14T20:36:47.964Z,95631.63
2023-05-14T20:39:19.316Z,95613.47
2023-05-14T20:41:51.072Z,95585.72
2023-05-14T20:44:18.465Z,95595.84
2023-05-14T20:46:49.820Z,95612.72
2023-05-14T20:49:20.480Z,95618.81
2023-05-14T20:51:47.834Z,95568.50
2023-05-14T20:54:17.253Z,95606.09
2023-05-14T20:56:44.095Z,95594.38
2023-05-14T20:59:13.200Z,95623.84
2023-05-14T21:01:43.117Z,95592.41
2023-05-14T21:04:17.215Z,95618.03
2023-05-14T21:06:46.408Z,95594.38
2023-05-14T21:09:15.631Z,95610.59
2023-05-14T21:11:44.779Z,95591.03
2023-05-14T21:14:11.727Z,95592.41
2023-05-14T21:16:38.803Z,95617.28
2023-05-14T21:19:08.104Z,95610.84
2023-05-14T21:21:34.986Z,95609.06
2023-05-14T21:24:05.040Z,95612.78
2023-05-14T21:26:37.090Z,95598.03
2023-05-14T21:29:06.149Z,95624.09
2023-05-14T21:31:40.656Z,95618.94
2023-05-14T21:34:07.613Z,95616.38
2023-05-14T21:36:36.832Z,95581.31
2023-05-14T21:39:03.928Z,95592.84
2023-05-14T21:41:38.403Z,95615.00
2023-05-14T21:44:05.551Z,95605.34
2023-05-14T21:46:34.711Z,95600.94
2023-05-14T21:49:01.535Z,95599.50
2023-05-14T21:51:33.338Z,95618.00
2023-05-14T21:54:02.482Z,95615.50
2023-05-14T21:56:29.623Z,95604.63
2023-05-14T21:58:57.196Z,95597.97
2023-05-14T22:01:26.477Z,95580.47
2023-05-14T22:03:57.659Z,95582.78
2023-05-14T22:06:27.031Z,95600.09
2023-05-14T22:08:53.948Z,95598.78
2023-05-14T22:11:22.063Z,95600.09
2023-05-14T22:13:51.042Z,95609.00
2023-05-14T22:16:22.467Z,95585.56
2023-05-14T22:18:49.517Z,95593.69
2023-05-14T22:21:16.503Z,95559.38
2023-05-14T22:23:45.805Z,95599.41
2023-05-14T22:26:16.140Z,95565.16
2023-05-14T22:28:43.804Z,95599.56
2023-05-14T22:31:10.877Z,95592.16
2023-05-14T22:33:39.902Z,95590.66
2023-05-14T22:36:10.649Z,95583.47
2023-05-14T22:38:37.563Z,95597.44
2023-05-14T22:41:04.370Z,95581.31
2023-05-14T22:43:33.669Z,95573.41
2023-05-14T22:46:00.745Z,95555.09
2023-05-14T22:48:29.716Z,95600.88
2023-05-14T22:50:59.527Z,95562.97
2023-05-14T22:53:28.597Z,95586.97
2023-05-14T22:55:57.637Z,95569.59
2023-05-14T22:58:29.237Z,95587.19
2023-05-14T23:00:58.770Z,95579.72
2023-05-14T23:03:25.550Z,95564.25
2023-05-14T23:05:52.453Z,95570.75
2023-05-14T23:08:19.217Z,95570.69
2023-05-14T23:10:46.042Z,95561.38
2023-05-14T23:13:12.899Z,95583.97
2023-05-14T23:15:39.773Z,95592.50
2023-05-14T23:18:08.993Z,95550.78
2023-05-14T23:20:38.361Z,95610.44
2023-05-14T23:23:06.570Z,95580.53
2023-05-14T23:25:36.417Z,95579.16
2023-05-14T23:28:10.747Z,95570.63
2023-05-14T23:30:40.131Z,95564.78
2023-05-14T23:33:07.130Z,95572.09
2023-05-14T23:35:39.411Z,95547.94
2023-05-14T23:38:07.279Z,95569.09
2023-05-14T23:40:36.335Z,95563.03
2023-05-14T23:43:03.209Z,95556.88
2023-05-14T23:45:33.003Z,95548.22
2023-05-14T23:48:03.485Z,95550.59
2023-05-14T23:50:30.386Z,95558.91
2023-05-14T23:52:59.408Z,95553.13
2023-05-14T23:55:26.431Z,95528.97
2023-05-14T23:57:53.482Z,95538.25
